createdAt,value
2023-04-24T00:01:23.369Z,86.56
2023-04-24T00:03:50.724Z,85.50
2023-04-24T00:06:18.254Z,85.30
2023-04-24T00:08:45.417Z,85.42
2023-04-24T00:11:12.382Z,85.51
2023-04-24T00:13:39.665Z,85.84
2023-04-24T00:16:06.912Z,85.77
2023-04-24T00:18:33.966Z,86.01
2023-04-24T00:21:01.058Z,86.96
2023-04-24T00:23:28.174Z,87.19
2023-04-24T00:25:55.270Z,87.94
2023-04-24T00:28:22.160Z,88.28
2023-04-24T00:30:49.074Z,88.11
2023-04-24T00:33:16.084Z,88.12
2023-04-24T00:35:43.115Z,88.14
2023-04-24T00:38:11.690Z,88.78
2023-04-24T00:40:38.665Z,88.95
2023-04-24T00:43:05.649Z,88.81
2023-04-24T00:45:32.815Z,89.08
2023-04-24T00:47:59.850Z,90.54
2023-04-24T00:50:27.652Z,90.64
2023-04-24T00:52:54.646Z,90.93
2023-04-24T00:55:22.213Z,91.44
2023-04-24T00:57:49.226Z,92.18
2023-04-24T01:00:16.378Z,93.19
2023-04-24T01:02:48.071Z,94.14
2023-04-24T01:05:16.205Z,95.11
2023-04-24T01:07:46.591Z,95.47
2023-04-24T01:10:14.791Z,96.13
2023-04-24T01:12:41.921Z,96.26
2023-04-24T01:15:09.983Z,96.99
2023-04-24T01:17:37.163Z,97.02
2023-04-24T01:20:07.363Z,97.34
2023-04-24T01:22:37.484Z,98.00
2023-04-24T01:25:04.746Z,97.75
2023-04-24T01:27:31.616Z,95.53
2023-04-24T01:29:58.604Z,92.98
2023-04-24T01:32:26.332Z,91.42
2023-04-24T01:34:53.448Z,90.49
2023-04-24T01:37:20.558Z,91.05
2023-04-24T01:39:47.544Z,91.23
2023-04-24T01:42:14.493Z,90.88
2023-04-24T01:44:43.008Z,90.16
2023-04-24T01:47:10.106Z,89.88
2023-04-24T01:49:39.074Z,90.54
2023-04-24T01:52:07.503Z,91.50
2023-04-24T01:54:34.448Z,91.96
2023-04-24T01:57:03.768Z,92.82
2023-04-24T01:59:30.794Z,93.66
2023-04-24T02:01:57.827Z,94.01
2023-04-24T02:04:24.837Z,94.69
2023-04-24T02:06:52.403Z,95.28
2023-04-24T02:09:19.319Z,95.91
2023-04-24T02:11:46.446Z,96.85
2023-04-24T02:14:13.483Z,96.10
2023-04-24T02:16:40.677Z,95.71
2023-04-24T02:19:07.668Z,95.63
2023-04-24T02:21:34.814Z,96.44
2023-04-24T02:24:02.072Z,96.39
2023-04-24T02:26:29.121Z,97.29
2023-04-24T02:28:56.138Z,96.88
2023-04-24T02:31:23.093Z,96.77
2023-04-24T02:33:50.132Z,96.86
2023-04-24T02:36:17.608Z,97.16
2023-04-24T02:38:44.747Z,98.66
2023-04-24T02:41:13.135Z,99.04
2023-04-24T02:43:40.157Z,99.27
2023-04-24T02:46:07.345Z,99.95
2023-04-24T02:48:34.382Z,99.94
2023-04-24T02:51:01.418Z,99.48
2023-04-24T02:53:28.405Z,99.96
2023-04-24T02:55:55.328Z,100.00
2023-04-24T02:58:22.458Z,100.00
2023-04-24T03:00:49.413Z,100.00
2023-04-24T03:03:16.485Z,100.00
2023-04-24T03:05:43.787Z,100.00
2023-04-24T03:08:11.511Z,100.00
2023-04-24T03:10:38.513Z,100.00
2023-04-24T03:13:05.586Z,100.00
2023-04-24T03:15:35.109Z,100.00
2023-04-24T03:18:02.612Z,100.00
2023-04-24T03:20:29.641Z,100.00
2023-04-24T03:22:58.718Z,100.00
2023-04-24T03:25:27.066Z,100.00
2023-04-24T03:27:55.934Z,100.00
2023-04-24T03:30:32.376Z,100.00
2023-04-24T03:33:00.904Z,100.00
2023-04-24T03:35:31.066Z,100.00
2023-04-24T03:37:59.083Z,100.00
2023-04-24T03:40:43.469Z,99.89
2023-04-24T03:43:45.963Z,99.75
2023-04-24T03:46:13.155Z,100.00
2023-04-24T03:48:44.360Z,100.00
2023-04-24T03:51:11.349Z,100.00
2023-04-24T03:53:39.687Z,100.00
2023-04-24T03:56:06.742Z,100.00
2023-04-24T03:58:33.706Z,100.00
2023-04-24T04:01:01.389Z,100.00
2023-04-24T04:03:46.838Z,100.00
2023-04-24T04:06:14.792Z,100.00
2023-04-24T04:08:41.981Z,100.00
2023-04-24T04:11:09.252Z,100.00
2023-04-24T04:13:36.300Z,100.00
2023-04-24T04:16:03.485Z,100.00
2023-04-24T04:18:31.032Z,100.00
2023-04-24T04:20:58.414Z,100.00
2023-04-24T04:23:25.646Z,100.00
2023-04-24T04:26:04.707Z,100.00
2023-04-24T04:28:42.709Z,100.00
2023-04-24T04:31:09.726Z,100.00
2023-04-24T04:33:39.438Z,100.00
2023-04-24T04:36:07.041Z,100.00
2023-04-24T04:38:36.131Z,100.00
2023-04-24T04:41:13.306Z,100.00
2023-04-24T04:43:41.884Z,100.00
2023-04-24T04:46:12.011Z,100.00
2023-04-24T04:48:57.852Z,100.00
2023-04-24T04:51:25.114Z,100.00
2023-04-24T04:53:52.350Z,100.00
2023-04-24T04:56:19.419Z,100.00
2023-04-24T04:58:46.771Z,100.00
2023-04-24T05:01:16.081Z,100.00
2023-04-24T05:03:46.567Z,100.00
2023-04-24T05:06:16.274Z,100.00
2023-04-24T05:08:44.024Z,100.00
2023-04-24T05:11:19.972Z,100.00
2023-04-24T05:13:47.412Z,100.00
2023-04-24T05:16:25.796Z,100.00
2023-04-24T05:18:53.500Z,100.00
2023-04-24T05:21:23.889Z,100.00
2023-04-24T05:23:52.319Z,100.00
2023-04-24T05:26:27.656Z,100.00
2023-04-24T05:28:56.505Z,100.00
2023-04-24T05:31:23.657Z,100.00
2023-04-24T05:33:50.911Z,100.00
2023-04-24T05:36:18.065Z,100.00
2023-04-24T05:38:45.132Z,100.00
2023-04-24T05:41:12.159Z,100.00
2023-04-24T05:43:39.226Z,100.00
2023-04-24T05:46:06.549Z,100.00
2023-04-24T05:48:33.562Z,100.00
2023-04-24T05:51:02.327Z,99.97
2023-04-24T05:53:29.905Z,97.64
2023-04-24T05:55:57.037Z,94.36
2023-04-24T05:58:24.940Z,92.10
2023-04-24T06:00:52.143Z,89.46
2023-04-24T06:03:19.617Z,88.17
2023-04-24T06:05:48.505Z,85.30
2023-04-24T06:08:15.885Z,83.28
2023-04-24T06:10:43.545Z,81.50
2023-04-24T06:13:10.916Z,81.78
2023-04-24T06:15:45.712Z,82.92
2023-04-24T06:18:33.453Z,80.33
2023-04-24T06:21:01.227Z,75.37
2023-04-24T06:23:28.453Z,70.39
2023-04-24T06:25:56.936Z,68.44
2023-04-24T06:28:26.354Z,66.72
2023-04-24T06:30:54.120Z,64.52
2023-04-24T06:33:23.817Z,62.18
2023-04-24T06:35:52.871Z,60.86
2023-04-24T06:38:19.940Z,62.23
2023-04-24T06:40:49.902Z,64.21
2023-04-24T06:43:20.827Z,65.15
2023-04-24T06:45:48.744Z,66.01
2023-04-24T06:48:16.434Z,66.45
2023-04-24T06:50:43.439Z,66.57
2023-04-24T06:53:12.289Z,65.79
2023-04-24T06:55:39.684Z,64.62
2023-04-24T06:58:07.229Z,64.25
2023-04-24T07:00:37.177Z,62.86
2023-04-24T07:03:06.503Z,62.36
2023-04-24T07:05:36.569Z,62.71
2023-04-24T07:08:08.036Z,64.08
2023-04-24T07:10:37.195Z,63.91
2023-04-24T07:13:06.323Z,63.76
2023-04-24T07:15:33.726Z,62.58
2023-04-24T07:18:04.026Z,60.81
2023-04-24T07:20:36.161Z,60.94
2023-04-24T07:23:04.345Z,58.74
2023-04-24T07:25:32.552Z,57.13
2023-04-24T07:27:59.856Z,56.16
2023-04-24T07:30:36.906Z,54.62
2023-04-24T07:33:03.889Z,53.59
2023-04-24T07:35:38.404Z,54.07
2023-04-24T07:38:06.477Z,54.58
2023-04-24T07:40:39.787Z,53.83
2023-04-24T07:43:12.616Z,53.67
2023-04-24T07:45:44.406Z,53.67
2023-04-24T07:48:17.732Z,53.81
2023-04-24T07:50:47.940Z,54.04
2023-04-24T07:53:16.086Z,53.88
2023-04-24T07:55:43.471Z,54.36
2023-04-24T07:58:10.660Z,54.44
2023-04-24T08:00:40.227Z,54.04
2023-04-24T08:03:07.497Z,53.25
2023-04-24T08:05:35.090Z,52.46
2023-04-24T08:08:02.250Z,51.92
2023-04-24T08:10:29.624Z,51.61
2023-04-24T08:12:56.981Z,50.61
2023-04-24T08:15:24.085Z,50.56
2023-04-24T08:17:51.878Z,49.13
2023-04-24T08:20:19.084Z,49.03
2023-04-24T08:22:48.871Z,48.65
2023-04-24T08:25:16.324Z,49.84
2023-04-24T08:27:43.752Z,49.66
2023-04-24T08:30:11.187Z,49.28
2023-04-24T08:32:38.619Z,48.78
2023-04-24T08:35:07.011Z,48.91
2023-04-24T08:37:34.317Z,49.45
2023-04-24T08:40:01.926Z,50.36
2023-04-24T08:42:29.596Z,50.80
2023-04-24T08:45:01.740Z,52.18
2023-04-24T08:47:28.866Z,52.45
2023-04-24T08:49:57.917Z,51.97
2023-04-24T08:52:29.754Z,51.95
2023-04-24T08:54:56.863Z,51.97
2023-04-24T08:57:23.840Z,52.59
2023-04-24T08:59:51.171Z,52.89
2023-04-24T09:02:27.059Z,53.83
2023-04-24T09:05:00.800Z,53.57
2023-04-24T09:07:42.063Z,53.36
2023-04-24T09:10:21.449Z,52.95
2023-04-24T09:12:48.677Z,53.10
2023-04-24T09:15:16.560Z,52.98
2023-04-24T09:17:46.865Z,53.74
2023-04-24T09:20:13.977Z,53.76
2023-04-24T09:22:42.439Z,54.64
2023-04-24T09:25:10.221Z,54.69
2023-04-24T09:27:37.324Z,54.65
2023-04-24T09:30:08.777Z,54.35
2023-04-24T09:32:36.422Z,54.66
2023-04-24T09:35:13.260Z,54.98
2023-04-24T09:37:49.848Z,55.23
2023-04-24T09:40:21.760Z,55.50
2023-04-24T09:42:58.197Z,55.61
2023-04-24T09:45:43.500Z,56.32
2023-04-24T09:48:11.411Z,56.54
2023-04-24T09:50:38.916Z,55.97
2023-04-24T09:53:08.479Z,55.53
2023-04-24T09:55:40.275Z,55.78
2023-04-24T09:58:08.860Z,56.58
2023-04-24T10:00:36.241Z,57.45
2023-04-24T10:03:05.945Z,58.33
2023-04-24T10:05:37.942Z,58.93
2023-04-24T10:08:14.573Z,58.94
2023-04-24T10:10:50.570Z,59.24
2023-04-24T10:13:17.859Z,58.16
2023-04-24T10:15:45.406Z,57.61
2023-04-24T10:18:15.280Z,57.34
2023-04-24T10:20:42.773Z,57.52
2023-04-24T10:23:09.890Z,57.71
2023-04-24T10:25:40.557Z,58.78
2023-04-24T10:28:09.765Z,58.87
2023-04-24T10:30:38.771Z,59.10
2023-04-24T10:33:07.022Z,59.38
2023-04-24T10:35:43.048Z,59.69
2023-04-24T10:38:14.716Z,59.78
2023-04-24T10:40:43.431Z,59.92
2023-04-24T10:43:12.371Z,59.91
2023-04-24T10:45:47.627Z,60.19
2023-04-24T10:48:20.516Z,60.64
2023-04-24T10:50:54.685Z,60.47
2023-04-24T10:53:28.038Z,60.69
2023-04-24T10:55:59.608Z,61.09
2023-04-24T10:58:46.094Z,61.66
2023-04-24T11:01:30.637Z,62.84
2023-04-24T11:04:02.197Z,63.70
2023-04-24T11:06:33.099Z,64.06
2023-04-24T11:09:13.577Z,62.93
2023-04-24T11:11:46.360Z,63.05
2023-04-24T11:14:16.833Z,64.09
2023-04-24T11:16:56.358Z,64.47
2023-04-24T11:19:26.807Z,64.32
2023-04-24T11:22:15.413Z,64.09
2023-04-24T11:24:48.491Z,64.17
2023-04-24T11:27:23.022Z,64.07
2023-04-24T11:29:56.767Z,63.12
2023-04-24T11:32:33.650Z,62.62
2023-04-24T11:35:20.257Z,63.34
2023-04-24T11:38:18.726Z,63.40
2023-04-24T11:40:40.495Z,63.78
2023-04-24T11:43:09.946Z,64.07
2023-04-24T11:45:37.122Z,64.17
2023-04-24T11:48:04.951Z,63.94
2023-04-24T11:50:32.236Z,64.43
2023-04-24T11:53:00.217Z,64.39
2023-04-24T11:55:28.384Z,64.32
2023-04-24T11:58:00.712Z,64.24
2023-04-24T12:00:39.416Z,64.33
2023-04-24T12:03:12.907Z,64.46
2023-04-24T12:05:41.123Z,64.90
2023-04-24T12:08:08.818Z,65.92
2023-04-24T12:10:38.799Z,66.56
2023-04-24T12:13:06.607Z,66.89
2023-04-24T12:15:39.242Z,67.22
2023-04-24T12:18:10.745Z,67.75
2023-04-24T12:20:37.836Z,68.34
2023-04-24T12:23:04.950Z,68.93
2023-04-24T12:25:35.694Z,69.31
2023-04-24T12:28:06.097Z,69.58
2023-04-24T12:31:04.091Z,68.70
2023-04-24T12:33:35.823Z,67.81
2023-04-24T12:36:03.600Z,66.87
2023-04-24T12:38:42.111Z,67.07
2023-04-24T12:41:11.145Z,67.25
2023-04-24T12:43:38.589Z,66.75
2023-04-24T12:46:06.231Z,67.02
2023-04-24T12:48:33.640Z,67.68
2023-04-24T12:51:02.776Z,67.98
2023-04-24T12:53:33.316Z,68.24
2023-04-24T12:58:53.229Z,67.92
2023-04-24T13:01:20.584Z,68.48
2023-04-24T13:03:47.930Z,68.67
2023-04-24T13:06:15.263Z,69.20
2023-04-24T13:08:45.403Z,68.52
2023-04-24T13:11:12.621Z,67.73
2023-04-24T13:13:40.000Z,67.70
2023-04-24T13:16:13.466Z,68.27
2023-04-24T13:18:41.120Z,68.14
2023-04-24T13:21:08.162Z,68.32
2023-04-24T13:23:36.029Z,68.90
2023-04-24T13:26:06.242Z,69.33
2023-04-24T13:28:33.475Z,69.59
2023-04-24T13:31:00.567Z,70.10
2023-04-24T13:33:33.307Z,70.00
2023-04-24T13:36:01.227Z,70.53
2023-04-24T13:38:28.257Z,71.32
2023-04-24T13:40:56.021Z,71.00
2023-04-24T13:43:23.213Z,70.30
2023-04-24T13:45:50.452Z,69.78
2023-04-24T13:48:18.066Z,68.79
2023-04-24T13:50:45.683Z,68.56
2023-04-24T13:53:13.875Z,68.90
2023-04-24T13:55:41.279Z,68.74
2023-04-24T13:58:08.765Z,68.43
2023-04-24T14:00:36.389Z,69.34
2023-04-24T14:03:03.593Z,69.22
2023-04-24T14:05:31.181Z,68.68
2023-04-24T14:07:58.439Z,69.08
2023-04-24T14:10:28.432Z,68.03
2023-04-24T14:13:06.675Z,67.74
2023-04-24T14:15:33.830Z,67.82
2023-04-24T14:18:05.681Z,68.10
2023-04-24T14:20:33.776Z,68.50
2023-04-24T14:23:00.864Z,68.75
2023-04-24T14:25:28.169Z,67.93
2023-04-24T14:31:10.372Z,66.93
2023-04-24T14:33:37.764Z,67.06
2023-04-24T14:36:06.834Z,67.39
2023-04-24T14:38:34.019Z,67.43
2023-04-24T14:41:10.538Z,67.91
2023-04-24T14:43:40.519Z,68.19
2023-04-24T14:46:07.824Z,67.75
2023-04-24T14:48:34.836Z,67.54
2023-04-24T14:51:01.998Z,67.54
2023-04-24T14:53:29.074Z,67.45
2023-04-24T14:55:56.658Z,67.54
2023-04-24T14:58:24.509Z,68.94
2023-04-24T15:00:54.092Z,68.79
2023-04-24T15:03:21.929Z,68.80
2023-04-24T15:05:52.204Z,68.97
2023-04-24T15:08:19.225Z,68.66
2023-04-24T15:10:46.481Z,68.56
2023-04-24T15:13:13.461Z,68.40
2023-04-24T15:15:41.175Z,67.49
2023-04-24T15:18:09.862Z,67.45
2023-04-24T15:20:38.630Z,67.39
2023-04-24T15:23:09.840Z,67.30
2023-04-24T15:25:37.345Z,67.00
2023-04-24T15:28:04.720Z,67.11
2023-04-24T15:30:31.649Z,66.95
2023-04-24T15:32:58.601Z,66.51
2023-04-24T15:35:25.688Z,66.19
2023-04-24T15:37:52.699Z,65.80
2023-04-24T15:40:19.679Z,65.84
2023-04-24T15:42:47.235Z,66.21
2023-04-24T15:45:14.279Z,66.03
2023-04-24T15:47:41.206Z,65.62
2023-04-24T15:50:14.325Z,65.77
2023-04-24T15:52:41.618Z,65.87
2023-04-24T15:55:08.874Z,66.52
2023-04-24T15:57:35.993Z,66.40
2023-04-24T16:00:07.515Z,66.41
2023-04-24T16:02:39.162Z,66.38
2023-04-24T16:05:07.544Z,66.35
2023-04-24T16:07:34.871Z,66.59
2023-04-24T16:10:01.942Z,67.05
2023-04-24T16:12:28.940Z,67.06
2023-04-24T16:14:56.064Z,66.80
2023-04-24T16:17:23.477Z,66.75
2023-04-24T16:19:50.471Z,66.63
2023-04-24T16:22:17.487Z,66.46
2023-04-24T16:24:44.730Z,65.97
2023-04-24T16:27:12.305Z,65.73
2023-04-24T16:29:39.557Z,65.21
2023-04-24T16:32:06.585Z,65.66
2023-04-24T16:34:33.799Z,66.58
2023-04-24T16:37:00.715Z,67.09
2023-04-24T16:39:28.166Z,67.73
2023-04-24T16:41:56.662Z,68.26
2023-04-24T16:44:25.037Z,68.24
2023-04-24T16:46:52.033Z,67.76
2023-04-24T16:49:18.980Z,67.45
2023-04-24T16:51:46.027Z,67.63
2023-04-24T16:54:13.181Z,67.95
2023-04-24T16:56:40.156Z,68.61
2023-04-24T16:59:08.253Z,69.35
2023-04-24T17:01:35.354Z,70.06
2023-04-24T17:04:02.609Z,70.56
2023-04-24T17:06:29.602Z,71.10
2023-04-24T17:08:56.662Z,71.30
2023-04-24T17:11:23.509Z,71.65
2023-04-24T17:13:50.463Z,71.89
2023-04-24T17:16:17.407Z,72.42
2023-04-24T17:18:44.469Z,72.20
2023-04-24T17:21:11.469Z,71.95
2023-04-24T17:23:38.531Z,71.84
2023-04-24T17:26:05.928Z,71.83
2023-04-24T17:28:33.049Z,72.02
2023-04-24T17:31:00.272Z,72.35
2023-04-24T17:33:27.572Z,72.60
2023-04-24T17:35:54.823Z,72.68
2023-04-24T17:38:21.749Z,73.16
2023-04-24T17:40:52.991Z,73.28
2023-04-24T17:43:23.498Z,73.38
2023-04-24T17:45:51.435Z,73.27
2023-04-24T17:48:18.849Z,72.95
2023-04-24T17:50:46.171Z,72.15
2023-04-24T17:53:13.682Z,71.49
2023-04-24T17:55:42.085Z,71.55
2023-04-24T17:58:09.345Z,71.43
2023-04-24T18:00:36.478Z,71.33
2023-04-24T18:03:03.980Z,71.55
2023-04-24T18:05:31.820Z,71.91
2023-04-24T18:07:59.047Z,71.97
2023-04-24T18:10:26.341Z,72.02
2023-04-24T18:12:53.307Z,72.20
2023-04-24T18:15:20.556Z,72.55
2023-04-24T18:17:47.737Z,72.85
2023-04-24T18:20:15.806Z,73.09
2023-04-24T18:22:42.994Z,73.19
2023-04-24T18:25:10.605Z,73.75
2023-04-24T18:27:38.373Z,73.86
2023-04-24T18:30:06.871Z,73.96
2023-04-24T18:32:34.085Z,73.92
2023-04-24T18:35:01.060Z,73.53
2023-04-24T18:37:28.201Z,73.61
2023-04-24T18:39:56.540Z,73.60
2023-04-24T18:42:23.598Z,73.70
2023-04-24T18:44:51.505Z,74.33
2023-04-24T18:47:18.466Z,75.24
2023-04-24T18:49:45.376Z,75.78
2023-04-24T18:52:12.317Z,76.04
2023-04-24T18:54:39.198Z,76.70
2023-04-24T18:57:06.757Z,76.83
2023-04-24T18:59:33.737Z,76.93
2023-04-24T19:02:00.805Z,76.82
2023-04-24T19:04:29.828Z,76.83
2023-04-24T19:06:56.797Z,77.50
2023-04-24T19:09:23.765Z,78.28
2023-04-24T19:11:50.858Z,79.18
2023-04-24T19:14:17.945Z,79.54
2023-04-24T19:16:45.208Z,79.18
2023-04-24T19:19:12.287Z,79.22
2023-04-24T19:21:39.295Z,79.34
2023-04-24T19:24:06.560Z,79.71
2023-04-24T19:26:33.524Z,79.80
2023-04-24T19:29:00.716Z,79.86
2023-04-24T19:31:27.855Z,79.31
2023-04-24T19:33:54.770Z,79.46
2023-04-24T19:36:21.829Z,79.15
2023-04-24T19:38:51.050Z,79.05
2023-04-24T19:41:18.366Z,79.40
2023-04-24T19:43:47.470Z,79.32
2023-04-24T19:46:14.550Z,79.00
2023-04-24T19:48:41.546Z,79.16
2023-04-24T19:51:08.588Z,79.37
2023-04-24T19:53:35.471Z,79.05
2023-04-24T19:56:02.351Z,79.22
2023-04-24T19:58:31.256Z,79.24
2023-04-24T20:00:58.364Z,79.13
2023-04-24T20:03:32.736Z,79.39
2023-04-24T20:06:00.971Z,80.72
2023-04-24T20:08:27.839Z,81.22
2023-04-24T20:10:58.033Z,81.38
2023-04-24T20:13:27.744Z,81.30
2023-04-24T20:15:54.948Z,81.62
2023-04-24T20:18:21.849Z,82.15
2023-04-24T20:20:48.833Z,81.86
2023-04-24T20:23:15.909Z,82.31
2023-04-24T20:25:42.962Z,82.64
2023-04-24T20:28:09.872Z,82.95
2023-04-24T20:30:38.127Z,82.93
2023-04-24T20:33:05.114Z,82.90
2023-04-24T20:35:32.418Z,83.01
2023-04-24T20:37:59.776Z,83.13
2023-04-24T20:40:28.220Z,83.55
2023-04-24T20:42:56.572Z,83.71
2023-04-24T20:45:24.254Z,83.95
2023-04-24T20:47:51.357Z,83.91
2023-04-24T20:50:18.938Z,84.11
2023-04-24T20:52:45.930Z,84.53
2023-04-24T20:55:13.066Z,84.49
2023-04-24T20:57:40.218Z,84.44
2023-04-24T21:00:08.587Z,84.10
2023-04-24T21:02:35.732Z,83.69
2023-04-24T21:05:04.435Z,83.59
2023-04-24T21:07:31.459Z,84.23
2023-04-24T21:09:58.422Z,84.78
2023-04-24T21:12:25.406Z,84.36
2023-04-24T21:14:52.345Z,84.24
2023-04-24T21:17:19.337Z,84.50
2023-04-24T21:19:46.237Z,84.58
2023-04-24T21:22:13.178Z,84.50
2023-04-24T21:24:40.056Z,84.63
2023-04-24T21:27:07.613Z,84.72
2023-04-24T21:29:35.878Z,84.84
2023-04-24T21:32:03.624Z,85.29
2023-04-24T21:34:30.796Z,85.43
2023-04-24T21:36:57.759Z,85.63
2023-04-24T21:39:25.093Z,85.68
2023-04-24T21:41:52.148Z,86.00
2023-04-24T21:44:19.080Z,86.35
2023-04-24T21:46:46.614Z,87.05
2023-04-24T21:49:13.684Z,87.58
2023-04-24T21:51:40.597Z,88.11
2023-04-24T21:54:07.520Z,88.29
2023-04-24T21:56:34.461Z,88.33
2023-04-24T21:59:01.521Z,88.42
2023-04-24T22:01:28.511Z,88.57
2023-04-24T22:03:55.958Z,88.56
2023-04-24T22:06:23.208Z,88.45
2023-04-24T22:08:50.135Z,88.82
2023-04-24T22:11:26.909Z,89.50
2023-04-24T22:13:55.034Z,91.29
2023-04-24T22:16:24.044Z,91.44
2023-04-24T22:18:53.789Z,91.20
2023-04-24T22:21:21.527Z,91.29
2023-04-24T22:23:48.720Z,91.78
2023-04-24T22:26:16.072Z,92.33
2023-04-24T22:28:42.975Z,92.86
2023-04-24T22:31:09.974Z,93.21
2023-04-24T22:33:37.034Z,93.14
2023-04-24T22:36:04.232Z,93.28
2023-04-24T22:38:31.168Z,93.04
2023-04-24T22:40:58.127Z,93.01
2023-04-24T22:43:25.221Z,93.07
2023-04-24T22:45:52.180Z,93.36
2023-04-24T22:48:19.110Z,93.46
2023-04-24T22:50:46.065Z,93.63
2023-04-24T22:53:13.072Z,93.87
2023-04-24T22:55:40.030Z,93.95
2023-04-24T22:58:07.002Z,93.22
2023-04-24T23:00:34.155Z,93.55
2023-04-24T23:03:01.273Z,93.67
2023-04-24T23:05:28.418Z,93.55
2023-04-24T23:07:55.408Z,93.37
2023-04-24T23:10:22.720Z,93.56
2023-04-24T23:12:49.811Z,94.02
2023-04-24T23:15:16.932Z,94.13
2023-04-24T23:17:43.998Z,94.28
2023-04-24T23:20:13.770Z,94.54
2023-04-24T23:22:41.062Z,94.88
2023-04-24T23:25:11.395Z,95.36
2023-04-24T23:27:38.656Z,95.60
2023-04-24T23:30:07.127Z,95.80
2023-04-24T23:32:34.114Z,96.28
2023-04-24T23:35:01.034Z,96.10
2023-04-24T23:37:28.075Z,96.42
2023-04-24T23:39:54.920Z,95.99
2023-04-24T23:42:21.907Z,96.22
2023-04-24T23:44:48.895Z,96.69
2023-04-24T23:47:15.936Z,96.63
2023-04-24T23:49:42.889Z,96.64
2023-04-24T23:52:09.900Z,96.61
2023-04-24T23:54:37.180Z,97.14
2023-04-24T23:57:04.671Z,97.83
2023-04-24T23:59:31.860Z,98.54
